Strathy Point, United Kingdom

11:56 PM BST on September 25, 2016 (GMT +0100)
Strathy Point | | Change Station

Elev 203 ft 58.57 °N, 4.01 °W | Updated 14 seconds ago

Clear
Clear
50.0 °F
Feels Like 46 °F
N
9.2
Wind Variable Wind from WSW
Gusts 9.8 mph

Today
High -- | Low -- °F
--% Chance of Precip.
Yesterday
High -- | Low -- °F
Precip. -- in
Pressure 29.77 in
Visibility 6.2 miles
Clouds
Windchill 46 °F
Dew Point 42 °F
Humidity 74%
Rainfall 0.00 in
Snow Depth Not available.
7:08 AM 7:05 PM
Waning Crescent, 24% visible
METAR EGPC 252250Z AUTO 21007KT 9999 NCD 10/06 Q1008
Pressure 29.77 in
Visibility 6.2 miles
Clouds
Windchill 46 °F
Dew Point 42 °F
Humidity 74%
Rainfall 0.00 in
Snow Depth Not available.
7:08 AM 7:05 PM
Waning Crescent, 24% visible
METAR EGPC 252250Z AUTO 21007KT 9999 NCD 10/06 Q1008

10-Day Weather Forecast

×

Almanac

Astronomy

Sep. 25, 2016 Rise Set
Actual Time
Civil Twilight
Nautical Twilight
Astronomical Twilight
Moon
Length of Visible Light
Length of Day
Tomorrow will be .
, % of the Moon is Illuminated

Today's Extremes

Country Highs Country Lows

Community

WunderPhotos

Upload Photos

1,941,761 photos uploaded!

WunderBlog® & News

Nearby

Air Quality

  Air Quality AQ Index Pollutant
Not available.

Snow Depth

Station Depth Elevation

Earthquake Activity

City Distance Mag. Time & Date
Minimum magnitude displayed is 2.5.

Coastal Water Temperatures

Place Temperature

Stations

Nearby Weather Stations

Station Location Temp. Windchill Dew Point Humidity Wind Precip. Elev Updated Type